Time;durP1;ratioP1;P1;durP2;ratioP2;P2;SDS_P1;SDS_P2;PMS_P1;PMS_P2;Temp;Humidity;BMP_temperature;BMP_pressure;BME280_temperature;BME280_humidity;BME280_pressure;Samples;Min_cycle;Max_cycle;Signal;HPM_P1;HPM_P2
2022/11/24 00:01:15;;;;;;;16.90;3.70;;;;;;;7.11;100.00;100279.66;5093438;28;20035;-35
2022/11/24 00:03:41;;;;;;;14.90;3.55;;;;;;;7.11;100.00;100276.97;5093568;28;20031;-34
2022/11/24 00:06:09;;;;;;;14.05;3.45;;;;;;;7.11;100.00;100285.06;5093162;28;20028;-34
2022/11/24 00:08:35;;;;;;;17.88;4.47;;;;;;;7.05;100.00;100277.06;5094237;28;20333;-34
2022/11/24 00:11:06;;;;;;;14.77;3.90;;;;;;;7.08;100.00;100287.38;5093781;28;20517;-35
2022/11/24 00:13:32;;;;;;;13.35;3.60;;;;;;;7.05;100.00;100277.88;5092828;28;20472;-34
2022/11/24 00:16:33;;;;;;;12.25;3.13;;;;;;;7.09;100.00;100286.34;5093332;28;20027;-34
2022/11/24 00:19:00;;;;;;;13.85;3.38;;;;;;;7.07;100.00;100296.47;5093857;28;20020;-34
2022/11/24 00:21:27;;;;;;;13.80;3.30;;;;;;;7.03;100.00;100290.72;5093113;28;20020;-34
2022/11/24 00:23:53;;;;;;;13.32;3.25;;;;;;;7.09;100.00;100294.41;5092950;28;20436;-35
2022/11/24 00:26:19;;;;;;;16.67;3.70;;;;;;;7.05;100.00;100304.75;5093448;28;20024;-34
2022/11/24 00:28:46;;;;;;;18.45;3.60;;;;;;;7.05;100.00;100309.31;5093602;28;20406;-34
2022/11/24 00:31:22;;;;;;;13.73;3.10;;;;;;;7.05;100.00;100303.94;5093053;28;20028;-34
2022/11/24 00:33:50;;;;;;;8.95;2.78;;;;;;;7.04;100.00;100305.00;5092820;28;20476;-34
2022/11/24 00:36:16;;;;;;;13.65;3.00;;;;;;;6.99;100.00;100294.91;5091271;28;20097;-34
2022/11/24 00:38:42;;;;;;;12.18;3.85;;;;;;;7.06;100.00;100300.19;5093355;28;20111;-34
2022/11/24 00:41:08;;;;;;;12.77;3.08;;;;;;;6.91;100.00;100279.03;5093132;28;20079;-35
2022/11/24 00:43:33;;;;;;;12.25;3.03;;;;;;;7.06;100.00;100305.59;5092749;28;20025;-35
2022/11/24 00:45:59;;;;;;;11.47;3.23;;;;;;;7.01;100.00;100300.03;5093438;28;20047;-35
2022/11/24 00:48:24;;;;;;;13.87;3.60;;;;;;;7.05;100.00;100309.31;5093452;28;20028;-35
2022/11/24 00:51:00;;;;;;;14.80;3.43;;;;;;;7.08;100.00;100316.97;5092960;28;20412;-35
2022/11/24 00:53:26;;;;;;;10.80;3.00;;;;;;;7.07;100.00;100316.09;5092907;28;20496;-35
2022/11/24 00:55:53;;;;;;;11.18;3.00;;;;;;;7.02;100.00;100302.50;5092559;28;20484;-35
2022/11/24 00:58:18;;;;;;;;;;;;;;;7.11;100.00;100317.31;5093541;28;20024;-35
2022/11/24 01:00:43;;;;;;;12.73;3.60;;;;;;;7.05;100.00;100312.00;5092729;28;19921;-35
2022/11/24 01:03:09;;;;;;;13.20;3.10;;;;;;;6.99;100.00;100312.91;5093397;28;20265;-35
2022/11/24 01:05:35;;;;;;;12.15;2.50;;;;;;;7.02;100.00;100321.31;5092825;28;20031;-35
2022/11/24 01:08:00;;;;;;;9.55;2.53;;;;;;;7.01;100.00;100321.56;5092891;28;20460;-35
2022/11/24 01:10:26;;;;;;;10.17;2.83;;;;;;;6.95;100.00;100318.69;5092554;28;20054;-35
2022/11/24 01:12:51;;;;;;;12.83;3.37;;;;;;;7.01;100.00;100337.69;5093282;28;20038;-35
2022/11/24 01:15:18;;;;;;;14.27;2.85;;;;;;;7.02;100.00;100333.94;5092633;28;20386;-35
2022/11/24 01:17:43;;;;;;;13.20;2.90;;;;;;;7.01;100.00;100345.75;5092938;28;20074;-35
2022/11/24 01:20:09;;;;;;;11.83;2.73;;;;;;;6.96;100.00;100341.84;5092580;28;20039;-35
2022/11/24 01:22:34;;;;;;;11.90;3.20;;;;;;;6.89;100.00;100335.72;5090926;28;20127;-35
2022/11/24 01:24:59;;;;;;;16.80;3.00;;;;;;;6.88;100.00;100331.38;5094032;28;20380;-35
2022/11/24 01:27:25;;;;;;;11.30;3.00;;;;;;;6.91;100.00;100332.81;5096219;28;20467;-42
2022/11/24 01:29:50;;;;;;;16.23;2.90;;;;;;;6.97;100.00;100346.16;5094852;28;20039;-35
2022/11/24 01:32:15;;;;;;;12.70;2.83;;;;;;;6.88;100.00;100322.47;5096680;28;20108;-35
2022/11/24 01:34:41;;;;;;;13.43;3.00;;;;;;;7.01;100.00;100345.75;5096011;28;20024;-34
2022/11/24 01:37:06;;;;;;;14.57;3.07;;;;;;;7.01;100.00;100343.06;5095910;28;20035;-35
2022/11/24 01:39:31;;;;;;;10.07;2.90;;;;;;;7.00;100.00;100349.47;5112275;28;20103;-38
2022/11/24 01:42:00;;;;;;;12.23;3.87;;;;;;;6.94;100.00;100351.19;5095775;28;20058;-34
2022/11/24 01:44:29;;;;;;;13.50;2.75;;;;;;;6.96;100.00;100357.16;5096117;28;20465;-34
2022/11/24 01:47:29;;;;;;;12.32;3.20;;;;;;;6.95;100.00;100359.03;5096018;28;20077;-34
2022/11/24 01:49:58;;;;;;;11.40;2.83;;;;;;;6.92;100.00;100359.44;5095697;28;20111;-34
2022/11/24 01:52:39;;;;;;;14.63;3.60;;;;;;;6.90;100.00;100366.91;5096100;28;20119;-34
2022/11/24 01:55:10;;;;;;;13.38;3.08;;;;;;;6.92;100.00;100367.50;5095925;28;20426;-34
2022/11/24 01:57:41;;;;;;;14.45;3.15;;;;;;;6.92;100.00;100374.75;5095474;28;20032;-34
2022/11/24 02:00:10;;;;;;;17.98;2.97;;;;;;;6.95;100.00;100380.53;5094470;28;20098;-34
2022/11/24 02:02:36;;;;;;;16.08;3.45;;;;;;;6.93;100.00;100371.88;5095598;28;20036;-34
2022/11/24 02:05:06;;;;;;;13.33;3.30;;;;;;;6.97;100.00;100381.13;5096219;28;20055;-34
2022/11/24 02:07:32;;;;;;;13.70;4.00;;;;;;;6.98;100.00;100381.97;5096176;28;20191;-34
2022/11/24 02:10:03;;;;;;;10.55;2.63;;;;;;;6.92;100.00;100377.44;5095372;28;20111;-35
2022/11/24 02:12:29;;;;;;;14.55;2.78;;;;;;;6.92;100.00;100377.44;5096270;28;20055;-35
2022/11/24 02:14:55;;;;;;;9.63;2.63;;;;;;;6.97;100.00;100381.13;5096141;28;20040;-35
2022/11/24 02:17:21;;;;;;;14.73;3.13;;;;;;;6.89;100.00;100373.34;5094595;28;20032;-34
2022/11/24 02:19:54;;;;;;;11.82;3.25;;;;;;;6.87;100.00;100379.97;5095097;28;20035;-34
2022/11/24 02:22:30;;;;;;;10.38;2.50;;;;;;;6.92;100.00;100394.41;5095339;28;20043;-34
2022/11/24 02:25:05;;;;;;;11.30;3.37;;;;;;;6.88;100.00;100389.66;5095698;28;20024;-34
2022/11/24 02:27:31;;;;;;;12.63;3.30;;;;;;;6.85;100.00;100399.00;5095845;28;20024;-34
2022/11/24 02:29:57;;;;;;;12.07;2.77;;;;;;;6.84;100.00;100396.53;5095543;28;20028;-34
2022/11/24 02:32:22;;;;;;;14.23;2.83;;;;;;;6.81;100.00;100397.78;5095451;28;20091;-34
2022/11/24 02:34:48;;;;;;;14.70;3.50;;;;;;;6.81;100.00;100411.22;5095704;28;20066;-34
2022/11/24 02:37:13;;;;;;;9.40;2.53;;;;;;;6.81;100.00;100402.34;5095242;28;20032;-34
2022/11/24 02:39:38;;;;;;;11.70;3.03;;;;;;;6.76;100.00;100411.06;5095256;28;20039;-34
2022/11/24 02:42:08;;;;;;;13.83;3.10;;;;;;;6.77;100.00;100406.50;5094974;28;20024;-34
2022/11/24 02:44:40;;;;;;;14.77;3.75;;;;;;;6.73;100.00;100395.34;5093856;28;20039;-34
2022/11/24 02:47:11;;;;;;;13.88;2.65;;;;;;;6.77;100.00;100403.81;5094977;28;20046;-34
2022/11/24 02:49:36;;;;;;;13.93;3.00;;;;;;;6.72;100.00;100399.09;5095404;28;20105;-34
2022/11/24 02:52:02;;;;;;;18.60;4.22;;;;;;;6.75;100.00;100413.97;5094825;28;20032;-34
2022/11/24 02:54:28;;;;;;;12.93;3.05;;;;;;;6.75;100.00;100403.22;5095059;28;20028;-34
2022/11/24 02:56:53;;;;;;;9.87;2.80;;;;;;;6.78;100.00;100405.44;5094434;28;20016;-34
2022/11/24 02:59:18;;;;;;;12.83;3.30;;;;;;;6.78;100.00;100411.66;5095204;28;20246;-34
2022/11/24 03:01:44;;;;;;;14.37;3.37;;;;;;;6.81;100.00;100405.84;5095176;28;20368;-34
2022/11/24 03:04:09;;;;;;;12.57;3.13;;;;;;;6.71;100.00;100389.38;5094488;28;20032;-35
2022/11/24 03:06:35;;;;;;;15.87;4.23;;;;;;;6.86;100.00;100421.31;5094476;28;20424;-35
2022/11/24 03:09:00;;;;;;;14.40;3.23;;;;;;;6.93;100.00;100417.56;5094540;28;20024;-34
2022/11/24 03:11:25;;;;;;;15.30;3.60;;;;;;;6.86;100.00;100399.81;5094899;28;20472;-35
2022/11/24 03:13:51;;;;;;;16.87;3.73;;;;;;;6.97;100.00;100418.75;5094576;28;20027;-35
2022/11/24 03:16:16;;;;;;;13.37;2.87;;;;;;;6.90;100.00;100418.00;5094055;28;20063;-35
2022/11/24 03:18:41;;;;;;;12.40;2.87;;;;;;;7.01;100.00;100423.72;5094910;28;20047;-34
2022/11/24 03:21:07;;;;;;;13.27;3.30;;;;;;;7.00;100.00;100427.44;5094058;28;20123;-35
2022/11/24 03:23:32;;;;;;;16.10;4.20;;;;;;;6.99;100.00;100434.69;5093955;28;20024;-35
2022/11/24 03:26:18;;;;;;;14.27;3.70;;;;;;;7.01;100.00;100429.09;5092994;28;20096;-35
2022/11/24 03:28:44;;;;;;;12.88;3.15;;;;;;;6.99;100.00;100428.50;5094265;28;20024;-35
2022/11/24 03:31:10;;;;;;;16.47;3.50;;;;;;;7.00;100.00;100422.88;5093771;28;20161;-35
2022/11/24 03:33:35;;;;;;;16.95;3.85;;;;;;;7.06;100.00;100435.44;5093677;28;20099;-35
2022/11/24 03:36:02;;;;;;;17.55;3.85;;;;;;;7.09;100.00;100435.03;5094462;28;20028;-35
2022/11/24 03:38:27;;;;;;;16.10;3.75;;;;;;;7.13;100.00;100430.03;5094168;28;20043;-35
2022/11/24 03:40:53;;;;;;;16.63;3.50;;;;;;;7.14;100.00;100429.81;5093753;28;20444;-35
2022/11/24 03:43:18;;;;;;;16.77;4.00;;;;;;;7.14;100.00;100429.00;5093840;28;20741;-35
2022/11/24 03:45:48;;;;;;;13.93;3.47;;;;;;;7.14;100.00;100429.81;5093729;28;20120;-35
2022/11/24 03:48:15;;;;;;;17.52;4.03;;;;;;;7.17;100.00;100433.91;5093117;28;20254;-35
2022/11/24 03:50:40;;;;;;;15.63;3.25;;;;;;;7.18;100.00;100431.03;5094389;28;20032;-34
2022/11/24 03:53:06;;;;;;;16.70;3.83;;;;;;;7.12;100.00;100420.31;5092286;28;20391;-35
2022/11/24 03:55:31;;;;;;;15.52;3.40;;;;;;;7.21;100.00;100429.75;5093623;28;20266;-34
2022/11/24 03:57:57;;;;;;;21.77;4.10;;;;;;;7.22;100.00;100432.25;5093646;28;20028;-34
2022/11/24 04:00:22;;;;;;;14.20;3.87;;;;;;;7.26;100.00;100432.63;5093518;28;20380;-34
2022/11/24 04:02:47;;;;;;;14.30;3.97;;;;;;;7.22;100.00;100431.41;5093504;28;20032;-34
2022/11/24 04:05:13;;;;;;;19.07;4.40;;;;;;;7.33;100.00;100446.03;5093185;28;20115;-34
2022/11/24 04:07:39;;;;;;;14.60;3.67;;;;;;;7.35;100.00;100441.25;5093181;28;20017;-34
2022/11/24 04:10:05;;;;;;;18.60;4.70;;;;;;;7.35;100.00;100442.06;5093650;28;20456;-34
2022/11/24 04:12:45;;;;;;;;;;;;;;;7.41;100.00;100445.72;5094511;28;20100;-35
2022/11/24 04:15:13;;;;;;;15.57;3.40;;;;;;;7.38;100.00;100448.88;5093590;28;20359;-34
2022/11/24 04:17:38;;;;;;;16.40;3.58;;;;;;;7.40;100.00;100450.28;5092957;28;20024;-34
2022/11/24 04:20:04;;;;;;;14.57;4.00;;;;;;;7.42;100.00;100450.09;5093428;28;20028;-34
2022/11/24 04:22:30;;;;;;;;;;;;;;;7.45;100.00;100450.47;5093846;28;20046;-34
2022/11/24 04:24:55;;;;;;;18.30;3.95;;;;;;;7.37;100.00;100445.38;5094125;28;19907;-34
2022/11/24 04:27:21;;;;;;;21.45;4.00;;;;;;;7.44;100.00;100462.28;5093262;28;20028;-35
2022/11/24 04:29:46;;;;;;;15.30;4.13;;;;;;;7.40;100.00;100461.06;5093141;28;20032;-34
2022/11/24 04:32:11;;;;;;;15.67;2.70;;;;;;;7.38;100.00;100481.16;5093721;28;20024;-34
2022/11/24 04:34:37;;;;;;;7.73;2.00;;;;;;;7.29;100.00;100469.84;5093481;28;20521;-34
2022/11/24 04:37:02;;;;;;;5.50;1.80;;;;;;;7.30;100.00;100492.19;5093717;28;20027;-34
2022/11/24 04:39:27;;;;;;;7.40;1.70;;;;;;;7.09;100.00;100471.84;5093431;28;20036;-34
2022/11/24 04:41:53;;;;;;;9.73;3.07;;;;;;;7.17;100.00;100502.00;5093318;28;20036;-34
2022/11/24 04:44:18;;;;;;;8.50;1.67;;;;;;;7.13;100.00;100499.97;5093242;28;20020;-34
2022/11/24 04:46:43;;;;;;;5.07;1.77;;;;;;;6.99;100.00;100485.78;5092965;28;20047;-34
2022/11/24 04:49:10;;;;;;;5.03;1.20;;;;;;;7.05;100.00;100508.28;5093561;28;20483;-34
2022/11/24 04:51:40;;;;;;;3.58;1.05;;;;;;;6.95;100.00;100498.81;5091426;28;20452;-34
2022/11/24 04:54:07;;;;;;;4.57;1.10;;;;;;;7.00;100.00;100510.78;5092780;28;20428;-34
2022/11/24 04:56:32;;;;;;;;;;;;;;;7.02;100.00;100512.19;5092143;28;20111;-34
2022/11/24 04:58:58;;;;;;;4.87;1.20;;;;;;;6.97;100.00;100510.16;5093695;28;20015;-34
2022/11/24 05:01:23;;;;;;;7.05;1.60;;;;;;;6.85;100.00;100498.44;5097026;28;20297;-34
2022/11/24 05:03:48;;;;;;;8.88;1.40;;;;;;;6.95;100.00;100511.44;5096758;28;20135;-34
2022/11/24 05:06:14;;;;;;;6.43;1.60;;;;;;;6.93;100.00;100517.03;5097581;28;20024;-35
2022/11/24 05:08:39;;;;;;;6.77;1.43;;;;;;;6.93;100.00;100517.03;5097233;28;20024;-35
2022/11/24 05:11:05;;;;;;;5.10;1.50;;;;;;;6.93;100.00;100521.59;5096499;28;20097;-35
2022/11/24 05:13:31;;;;;;;4.10;1.50;;;;;;;6.91;100.00;100521.78;5096827;28;20032;-34
2022/11/24 05:15:56;;;;;;;4.65;1.45;;;;;;;6.93;100.00;100526.97;5096461;28;20031;-35
2022/11/24 05:18:22;;;;;;;5.77;1.50;;;;;;;6.93;100.00;100530.47;5097166;28;20028;-35
2022/11/24 05:20:48;;;;;;;5.18;1.35;;;;;;;6.88;100.00;100519.53;5096572;28;20066;-35
2022/11/24 05:23:14;;;;;;;7.68;1.67;;;;;;;6.96;100.00;100540.78;5096811;28;20043;-35
2022/11/24 05:25:40;;;;;;;9.57;2.15;;;;;;;6.94;100.00;100540.19;5096281;28;20032;-35
2022/11/24 05:28:10;;;;;;;7.72;1.90;;;;;;;6.95;100.00;100543.69;5096983;28;20039;-35
2022/11/24 05:30:39;;;;;;;9.00;1.90;;;;;;;6.94;100.00;100537.50;5096460;28;20126;-35
2022/11/24 05:33:17;;;;;;;9.95;2.00;;;;;;;6.98;100.00;100543.28;5095021;28;20074;-35
2022/11/24 05:35:43;;;;;;;9.60;1.92;;;;;;;6.92;100.00;100530.66;5097152;28;20385;-35
2022/11/24 05:38:09;;;;;;;13.63;2.95;;;;;;;6.89;100.00;100534.63;5096321;28;20456;-35
2022/11/24 05:40:35;;;;;;;10.32;1.63;;;;;;;6.97;100.00;100560.41;5096373;28;20103;-35
2022/11/24 05:43:00;;;;;;;10.60;1.92;;;;;;;6.98;100.00;100559.41;5096783;28;20470;-35
2022/11/24 05:45:25;;;;;;;9.33;1.93;;;;;;;7.00;100.00;100570.75;5096274;28;20031;-35
2022/11/24 05:47:52;;;;;;;8.27;2.10;;;;;;;7.01;100.00;100563.50;5096389;28;20398;-35
2022/11/24 05:50:18;;;;;;;;;;;;;;;7.06;100.00;100563.69;5096208;28;20024;-35
2022/11/24 05:52:43;;;;;;;6.88;1.60;;;;;;;6.96;100.00;100561.47;5096128;28;20007;-35
2022/11/24 05:55:09;;;;;;;6.43;1.90;;;;;;;6.97;100.00;100563.91;5096077;28;20198;-35
2022/11/24 05:57:34;;;;;;;7.22;1.75;;;;;;;7.00;100.00;100573.44;5096319;28;20032;-35
2022/11/24 06:00:00;;;;;;;9.93;1.77;;;;;;;7.03;100.00;100581.09;5095831;28;20448;-35
2022/11/24 06:02:26;;;;;;;6.53;2.22;;;;;;;6.93;100.00;100576.16;5095973;28;20384;-35
2022/11/24 06:04:51;;;;;;;8.13;1.92;;;;;;;6.98;100.00;100586.28;5095767;28;20036;-35
2022/11/24 06:07:17;;;;;;;10.10;1.97;;;;;;;7.04;100.00;100592.66;5096320;28;20032;-35
2022/11/24 06:09:43;;;;;;;5.82;1.50;;;;;;;6.98;100.00;100594.34;5096484;28;20026;-35
2022/11/24 06:12:10;;;;;;;6.40;1.83;;;;;;;7.05;100.00;100599.69;5094927;28;20047;-35
2022/11/24 06:14:36;;;;;;;8.55;1.88;;;;;;;7.05;100.00;100599.69;5096469;28;20506;-35
2022/11/24 06:17:01;;;;;;;8.50;1.83;;;;;;;7.03;100.00;100597.22;5096161;28;20055;-35
2022/11/24 06:19:27;;;;;;;6.63;1.70;;;;;;;7.05;100.00;100613.94;5096001;28;20032;-35
2022/11/24 06:21:52;;;;;;;8.73;2.10;;;;;;;7.02;100.00;100605.47;5094076;28;20039;-35
2022/11/24 06:24:18;;;;;;;10.40;2.43;;;;;;;7.01;100.00;100606.53;5095458;28;20323;-35
2022/11/24 06:26:43;;;;;;;7.50;1.93;;;;;;;7.03;100.00;100617.88;5095448;28;20039;-35
2022/11/24 06:29:08;;;;;;;4.10;1.60;;;;;;;7.08;100.00;100628.84;5095410;28;20111;-34
2022/11/24 06:31:34;;;;;;;7.37;2.17;;;;;;;7.09;100.00;100631.31;5095608;28;20119;-35
2022/11/24 06:33:59;;;;;;;8.17;2.03;;;;;;;7.10;100.00;100645.56;5095358;28;20044;-34
2022/11/24 06:36:26;;;;;;;8.32;3.08;;;;;;;7.03;100.00;100640.25;5095316;28;20117;-34
2022/11/24 06:38:51;;;;;;;6.82;2.00;;;;;;;7.00;100.00;100631.75;5095568;28;20032;-34
2022/11/24 06:41:17;;;;;;;8.98;1.67;;;;;;;7.03;100.00;100652.81;5095266;28;20514;-34
2022/11/24 06:43:43;;;;;;;9.33;2.17;;;;;;;7.06;100.00;100657.78;5095155;28;20028;-34
2022/11/24 06:46:09;;;;;;;7.60;1.92;;;;;;;7.00;100.00;100648.72;5094829;28;20281;-34
2022/11/24 06:48:35;;;;;;;7.85;2.20;;;;;;;7.06;100.00;100672.06;5094988;28;20081;-34
2022/11/24 06:51:05;;;;;;;6.32;1.83;;;;;;;7.07;100.00;100675.56;5094999;28;20024;-34
2022/11/24 06:53:38;;;;;;;5.60;1.67;;;;;;;7.05;100.00;100681.16;5094604;28;20472;-34
2022/11/24 06:56:09;;;;;;;5.15;2.00;;;;;;;7.03;100.00;100688.63;5095548;28;20081;-34
2022/11/24 06:58:38;;;;;;;6.28;2.00;;;;;;;7.01;100.00;100704.13;5095147;28;20036;-34
2022/11/24 07:01:04;;;;;;;5.60;1.75;;;;;;;7.00;100.00;100705.19;5094942;28;20035;-34
2022/11/24 07:03:29;;;;;;;9.13;2.03;;;;;;;6.91;100.00;100699.19;5093755;28;20020;-34
2022/11/24 07:05:58;;;;;;;5.50;1.73;;;;;;;6.82;100.00;100691.56;5094604;28;20465;-34
2022/11/24 07:08:24;;;;;;;6.40;1.90;;;;;;;6.94;100.00;100722.16;5095209;28;20024;-34
2022/11/24 07:10:51;;;;;;;6.32;2.03;;;;;;;6.90;100.00;100724.44;5094604;28;20524;-34
2022/11/24 07:13:17;;;;;;;8.25;2.00;;;;;;;6.90;100.00;100727.13;5095725;28;20136;-34
2022/11/24 07:15:42;;;;;;;9.00;1.63;;;;;;;6.88;100.00;100745.34;5094233;28;20060;-34
2022/11/24 07:18:07;;;;;;;6.17;1.70;;;;;;;6.80;100.00;100729.41;5095411;28;20110;-34
2022/11/24 07:20:33;;;;;;;5.00;1.33;;;;;;;6.86;100.00;100757.31;5094633;28;20039;-34
2022/11/24 07:22:58;;;;;;;5.90;1.63;;;;;;;6.81;100.00;100746.34;5094157;28;20051;-35
2022/11/24 07:25:24;;;;;;;6.83;1.70;;;;;;;6.86;100.00;100760.81;5094388;28;20039;-35
2022/11/24 07:27:57;;;;;;;9.05;2.10;;;;;;;6.88;100.00;100768.66;5094039;28;20132;-35
2022/11/24 07:30:23;;;;;;;5.90;1.58;;;;;;;6.85;100.00;100769.94;5094323;28;20036;-35
2022/11/24 07:32:48;;;;;;;6.47;1.65;;;;;;;6.83;100.00;100771.16;5095044;28;20028;-34
2022/11/24 07:35:14;;;;;;;6.47;1.50;;;;;;;6.86;100.00;100781.50;5092925;28;20105;-34
2022/11/24 07:37:39;;;;;;;7.33;1.60;;;;;;;6.79;100.00;100769.94;5094577;28;20402;-34
2022/11/24 07:40:05;;;;;;;6.10;1.90;;;;;;;6.85;100.00;100786.06;5093762;28;20167;-34
2022/11/24 07:42:30;;;;;;;10.20;1.83;;;;;;;6.85;100.00;100788.75;5094340;28;20020;-34
2022/11/24 07:44:55;;;;;;;8.13;1.70;;;;;;;6.88;100.00;100787.47;5094258;28;20028;-34
2022/11/24 07:47:21;;;;;;;3.40;1.30;;;;;;;6.88;100.00;100798.25;5093769;28;20063;-34
2022/11/24 07:49:46;;;;;;;4.87;1.40;;;;;;;6.83;100.00;100788.13;5093351;28;20024;-34
2022/11/24 07:52:11;;;;;;;5.87;1.70;;;;;;;6.88;100.00;100806.31;5094187;28;20100;-34
2022/11/24 07:54:37;;;;;;;8.37;1.60;;;;;;;6.80;100.00;100793.09;5093769;28;20032;-34
2022/11/24 07:57:02;;;;;;;6.70;1.70;;;;;;;6.85;100.00;100809.44;5093926;28;20028;-34
2022/11/24 07:59:27;;;;;;;8.93;1.93;;;;;;;6.82;100.00;100810.66;5093236;28;20032;-34
2022/11/24 08:01:53;;;;;;;5.30;1.23;;;;;;;6.81;100.00;100817.06;5094113;28;20043;-34
2022/11/24 08:04:18;;;;;;;9.00;1.90;;;;;;;6.78;100.00;100809.41;5094322;28;20471;-34
2022/11/24 08:06:43;;;;;;;7.80;1.70;;;;;;;6.85;100.00;100825.56;5093981;28;20182;-34
2022/11/24 08:09:09;;;;;;;6.27;1.33;;;;;;;6.86;100.00;100819.13;5093680;28;20030;-35
2022/11/24 08:11:35;;;;;;;4.90;1.47;;;;;;;6.91;100.00;100824.72;5093332;28;20127;-35
2022/11/24 08:14:00;;;;;;;;;;;;;;;6.96;100.00;100833.81;5094179;28;20036;-35
2022/11/24 08:16:25;;;;;;;7.23;1.87;;;;;;;6.94;100.00;100835.88;5093548;28;19908;-35
2022/11/24 08:18:53;;;;;;;6.40;1.80;;;;;;;6.95;100.00;100840.22;5093352;28;20425;-35
2022/11/24 08:21:18;;;;;;;7.20;1.58;;;;;;;6.95;100.00;100845.59;5093397;28;20085;-35
2022/11/24 08:23:44;;;;;;;8.13;1.55;;;;;;;6.99;100.00;100846.03;5093941;28;20031;-35
2022/11/24 08:26:16;;;;;;;5.30;1.87;;;;;;;7.01;100.00;100851.19;5093141;28;20028;-35
2022/11/24 08:28:43;;;;;;;5.05;1.48;;;;;;;7.05;100.00;100863.19;5092589;28;20093;-35
2022/11/24 08:31:14;;;;;;;5.55;1.50;;;;;;;7.08;100.00;100868.16;5093315;28;20058;-35
2022/11/24 08:33:40;;;;;;;7.53;1.70;;;;;;;7.09;100.00;100848.28;5093283;28;20032;-35
2022/11/24 08:36:08;;;;;;;8.63;1.77;;;;;;;7.13;100.00;100865.69;5093561;28;20042;-35
2022/11/24 08:38:34;;;;;;;9.20;1.65;;;;;;;7.18;100.00;100873.94;5093365;28;20456;-35
2022/11/24 08:41:11;;;;;;;6.35;1.60;;;;;;;7.22;100.00;100878.69;5093077;28;20063;-35
2022/11/24 08:43:37;;;;;;;6.65;1.52;;;;;;;7.25;100.00;100882.81;5092232;28;20486;-35
2022/11/24 08:46:09;;;;;;;5.50;1.60;;;;;;;7.30;100.00;100893.78;5093349;28;20028;-35
2022/11/24 08:48:36;;;;;;;6.22;1.60;;;;;;;7.32;100.00;100893.56;5093486;28;20031;-35
2022/11/24 08:51:22;;;;;;;5.60;1.50;;;;;;;7.41;100.00;100893.13;5093084;28;20060;-35
2022/11/24 08:53:47;;;;;;;6.18;1.88;;;;;;;7.43;100.00;100898.34;5093115;28;20035;-35
2022/11/24 08:56:13;;;;;;;7.53;2.67;;;;;;;7.38;100.00;100893.56;5092694;28;20028;-35
2022/11/24 08:58:39;;;;;;;7.95;1.90;;;;;;;7.46;100.00;100905.97;5093212;28;20081;-35
2022/11/24 09:01:13;;;;;;;5.97;1.60;;;;;;;7.55;100.00;100906.59;5092971;28;20127;-35
2022/11/24 09:03:39;;;;;;;4.13;1.50;;;;;;;7.57;100.00;100908.03;5092797;28;20031;-35
2022/11/24 09:06:05;;;;;;;;;;;;;;;7.67;100.00;100918.38;5093899;28;20022;-35
2022/11/24 09:08:32;;;;;;;9.05;1.65;;;;;;;7.65;100.00;100925.81;5093164;28;19951;-35
2022/11/24 09:11:02;;;;;;;9.00;2.00;;;;;;;7.68;100.00;100920.03;5092758;28;20038;-35
2022/11/24 09:13:27;;;;;;;5.78;1.88;;;;;;;7.72;100.00;100932.03;5093216;28;20132;-35
2022/11/24 09:15:52;;;;;;;7.00;2.00;;;;;;;7.64;100.00;100914.22;5093472;28;20103;-35
2022/11/24 09:18:18;;;;;;;7.00;1.83;;;;;;;7.79;100.00;100930.16;5093416;28;20029;-34
2022/11/24 09:20:43;;;;;;;8.50;1.83;;;;;;;7.73;100.00;100910.28;5092783;28;20024;-34
2022/11/24 09:23:08;;;;;;;6.43;1.57;;;;;;;7.89;100.00;100935.09;5093314;28;20020;-35
2022/11/24 09:25:34;;;;;;;7.50;1.87;;;;;;;7.92;100.00;100943.59;5092843;28;20028;-34
2022/11/24 09:27:59;;;;;;;8.30;2.10;;;;;;;7.89;100.00;100935.91;5092521;28;20016;-36
2022/11/24 09:30:25;;;;;;;9.80;2.80;;;;;;;7.99;100.00;100949.75;5092918;28;20028;-36
2022/11/24 09:32:50;;;;;;;8.15;2.55;;;;;;;7.96;100.00;100949.38;5092946;28;20029;-35
2022/11/24 09:35:16;;;;;;;11.80;3.23;;;;;;;8.07;100.00;100956.81;5092308;28;20373;-35
2022/11/24 09:37:43;;;;;;;17.08;2.30;;;;;;;8.10;100.00;100961.78;5092886;28;20463;-35
2022/11/24 09:40:13;;;;;;;5.72;1.92;;;;;;;8.13;100.00;100955.13;5092415;28;20028;-35
2022/11/24 09:42:57;;;;;;;7.40;1.73;;;;;;;8.21;100.00;100965.66;5093284;28;20031;-35
2022/11/24 09:45:46;;;;;;;8.13;2.10;;;;;;;8.24;100.00;100970.63;5092798;28;20081;-35
2022/11/24 09:48:25;;;;;;;7.53;2.20;;;;;;;8.33;100.00;100982.00;5096788;28;20035;-35
2022/11/24 09:50:51;;;;;;;9.10;2.45;;;;;;;8.38;100.00;100985.72;5096711;28;20023;-35
2022/11/24 09:53:30;;;;;;;;;;;;;;;8.47;100.00;100981.75;5097145;28;20032;-35
2022/11/24 09:55:59;;;;;;;9.90;2.40;;;;;;;8.42;100.00;100986.13;5096171;28;19908;-35
2022/11/24 09:58:50;;;;;;;11.80;3.40;;;;;;;8.46;100.00;100985.50;5096074;28;20431;-35
2022/11/24 10:01:23;;;;;;;11.10;2.70;;;;;;;8.43;100.00;100982.41;5095602;28;20020;-35
2022/11/24 10:03:50;;;;;;;8.02;2.60;;;;;;;8.53;100.00;100996.25;5096346;28;20036;-35
2022/11/24 10:06:25;;;;;;;10.15;3.10;;;;;;;8.59;100.00;101002.66;5095667;28;20486;-35
2022/11/24 10:09:11;;;;;;;11.57;3.15;;;;;;;8.54;100.00;100988.97;5096186;28;20055;-35
2022/11/24 10:11:58;;;;;;;11.25;2.83;;;;;;;8.58;100.00;100996.44;5096151;28;20048;-35
2022/11/24 10:14:44;;;;;;;12.97;3.10;;;;;;;8.69;100.00;101016.53;5096136;28;20077;-35
2022/11/24 10:17:15;;;;;;;11.45;3.08;;;;;;;8.74;100.00;101011.31;5096301;28;20066;-35
2022/11/24 10:20:01;;;;;;;11.98;2.97;;;;;;;8.78;100.00;101017.91;5095579;28;20035;-35
2022/11/24 10:22:49;;;;;;;11.40;3.50;;;;;;;8.85;100.00;101009.81;5095695;28;20024;-35
2022/11/24 10:25:18;;;;;;;;;;;;;;;8.91;100.00;101023.25;5096571;28;20468;-35
2022/11/24 10:27:47;;;;;;;9.10;2.58;;;;;;;8.83;100.00;101020.78;5095850;28;19912;-35
2022/11/24 10:30:19;;;;;;;8.02;2.72;;;;;;;8.92;100.00;101019.50;5095324;28;20067;-35
2022/11/24 10:32:51;;;;;;;16.80;3.35;;;;;;;8.95;100.00;101029.88;5095377;28;20468;-35
2022/11/24 10:35:25;;;;;;;15.63;3.22;;;;;;;8.90;100.00;101024.28;5095230;28;20040;-35
2022/11/24 10:38:12;;;;;;;12.10;2.88;;;;;;;9.03;100.00;101036.88;5095215;28;20460;-35
2022/11/24 10:40:40;;;;;;;15.60;3.30;;;;;;;9.00;100.00;101032.75;5095501;28;20020;-35
2022/11/24 10:43:09;;;;;;;17.30;2.97;;;;;;;9.10;100.00;101042.22;5095815;28;20024;-35
2022/11/24 10:45:38;;;;;;;10.40;3.05;;;;;;;9.14;100.00;101043.47;5095214;28;20024;-35
2022/11/24 10:48:10;;;;;;;11.50;3.30;;;;;;;9.19;100.00;101047.16;5095160;28;20028;-35
2022/11/24 10:50:39;;;;;;;13.77;3.28;;;;;;;9.25;100.00;101034.66;5094850;28;20068;-35
2022/11/24 10:53:07;;;;;;;9.57;2.35;;;;;;;9.09;100.00;101002.81;5095528;28;20031;-35
2022/11/24 10:55:54;;;;;;;11.15;3.13;;;;;;;9.34;100.00;101038.75;5094977;28;20107;-35
2022/11/24 10:58:31;;;;;;;14.18;2.97;;;;;;;9.30;100.00;101021.34;5095560;28;20039;-35
2022/11/24 11:01:27;;;;;;;11.90;2.90;;;;;;;9.42;100.00;101034.97;5094875;28;20026;-35
2022/11/24 11:03:55;;;;;;;9.75;2.72;;;;;;;9.41;100.00;101034.13;5032829;28;20045;-35
2022/11/24 11:06:21;;;;;;;15.00;2.47;;;;;;;9.42;100.00;101025.00;5032409;28;20052;-35
2022/11/24 11:08:47;;;;;;;12.52;2.50;;;;;;;9.41;100.00;101025.22;5032857;28;20064;-35
2022/11/24 11:11:15;;;;;;;13.02;2.85;;;;;;;9.52;100.00;101030.75;5032166;28;20041;-35
2022/11/24 11:13:54;;;;;;;12.88;3.15;;;;;;;9.62;100.00;101029.44;5032663;28;20060;-35
2022/11/24 11:16:25;;;;;;;9.75;2.75;;;;;;;9.66;100.00;101030.63;5032264;28;20087;-35
2022/11/24 11:18:51;;;;;;;11.75;2.83;;;;;;;9.68;100.00;101032.06;5032563;28;20033;-35
2022/11/24 11:21:31;;;;;;;11.50;2.72;;;;;;;9.67;100.00;101022.31;5032250;28;20033;-35
2022/11/24 11:23:57;;;;;;;11.55;3.08;;;;;;;9.67;100.00;101016.09;5032413;28;20037;-35
2022/11/24 11:26:23;;;;;;;9.65;2.83;;;;;;;9.79;100.00;101035.91;5032185;28;20033;-35
2022/11/24 11:28:59;;;;;;;11.23;3.27;;;;;;;9.83;100.00;101028.22;5032309;28;20045;-35